Latest Weather Observations for Broome

IDW60801

Issued at 11:35 am WST Friday 31 October 2014 (issued every 30 minutes, with the page automatically refreshed every 10 minutes)

About weather observations | Map of weather stations | Latest weather observations for WA | Other Formats
Station Details ID: 003003 Name: BROOME AIRPORT Lat: -17.95 Lon: 122.24 Height: 7.42 m
Data from the previous 72 hours. | See also: Recent months at Broome
Date/Time
WST
Temp
°C
App
Temp
°C
Dew
Point
Rel
Hum
%
Delta-T
°C
Wind Press
QNH
hPa
Press
MSL
hPa
Rain
since 9 am
mm
Dir
 
Spd
km/h
Gust
km/h
Spd
kts
Gust
kts
31/11:30am 32.8 34.5 22.4 54 7.1 NW 17 24 9 13 1007.1 - 0.0
31/11:00am 32.3 34.1 22.5 56 6.7 NW 17 24 9 13 1007.5 - 0.0
31/10:30am 32.3 34.7 22.9 57 6.5 WNW 15 24 8 13 1007.9 - 0.0
31/10:00am 31.5 33.3 22.6 59 6.1 WNW 17 24 9 13 1008.1 - 0.0
31/09:30am 31.7 32.6 22.0 56 6.6 WNW 20 28 11 15 1008.3 - 0.0
31/09:00am 30.9 32.9 23.0 62 5.4 WNW 17 26 9 14 1008.5 1008.4 0.0
31/08:30am 31.2 32.8 22.9 61 5.7 WNW 19 28 10 15 1008.5 - 0.0
31/08:00am 31.5 32.8 22.6 59 6.1 WNW 20 28 11 15 1008.5 - 0.0
31/07:30am 30.4 32.0 22.8 64 5.2 WNW 19 28 10 15 1008.4 - 0.0
31/07:00am 29.8 31.8 22.3 64 5.1 WNW 15 24 8 13 1008.2 - 0.0
31/06:30am 29.2 31.7 23.1 69 4.2 WNW 15 22 8 12 1008.0 - 0.0
31/06:00am 28.5 31.7 23.1 72 3.7 WNW 11 15 6 8 1007.7 1007.6 0.0
31/05:30am 27.7 31.4 23.3 77 3.0 WNW 9 13 5 7 1007.3 - 0.0
31/05:00am 27.5 31.0 23.6 79 2.7 WNW 11 15 6 8 1007.2 - 0.0
31/04:30am 27.7 31.3 23.8 79 2.7 W 11 17 6 9 1006.9 - 0.0
31/04:00am 27.8 31.2 24.0 80 2.6 W 13 22 7 12 1006.5 - 0.0
31/03:30am 27.7 31.4 24.5 83 2.2 W 13 20 7 11 1006.4 - 0.0
31/03:00am 27.9 31.8 24.8 83 2.2 W 13 19 7 10 1006.3 1006.2 0.0
31/02:30am 27.9 31.6 25.2 85 1.9 W 15 20 8 11 1006.1 - 0.0
31/02:00am 28.0 31.7 25.2 85 2.0 W 15 19 8 10 1006.2 - 0.0
31/01:30am 27.8 31.8 25.1 85 1.9 W 13 19 7 10 1006.4 - 0.0
31/01:00am 27.7 32.1 25.1 86 1.8 W 11 15 6 8 1006.6 - 0.0
31/12:30am 27.7 32.1 25.1 86 1.8 W 11 15 6 8 1006.8 - 0.0
31/12:00am 27.9 32.6 25.6 87 1.6 W 11 17 6 9 1007.2 1007.1 0.0
 
Date/Time
WST
Temp
°C
App
Temp
°C
Dew
Point
Rel
Hum
%
Delta-T
°C
Wind Press
QNH
hPa
Press
MSL
hPa
Rain
since 9 am
mm
Dir
 
Spd
km/h
Gust
km/h
Spd
kts
Gust
kts
30/11:30pm 28.0 32.9 25.9 88 1.5 W 11 15 6 8 1007.6 - 0.0
30/11:00pm 28.1 32.6 25.8 87 1.6 W 13 20 7 11 1008.0 - 0.0
30/10:30pm 27.8 32.3 25.8 89 1.4 W 13 17 7 9 1008.1 - 0.0
30/10:00pm 27.8 32.4 26.0 90 1.3 W 13 19 7 10 1008.3 - 0.0
30/09:30pm 27.9 32.8 25.9 89 1.4 WNW 11 19 6 10 1008.5 - 0.0
30/09:00pm 28.0 32.8 25.7 87 1.6 WNW 11 17 6 9 1008.4 1008.3 0.0
30/08:30pm 27.9 32.6 25.6 87 1.6 WNW 11 17 6 9 1008.1 - 0.0
30/08:00pm 28.0 32.6 25.4 86 1.8 WNW 11 17 6 9 1008.1 - 0.0
30/07:30pm 28.0 32.4 25.6 87 1.7 WNW 13 20 7 11 1007.9 - 0.0
30/07:00pm 28.1 31.6 25.5 86 1.8 WNW 17 24 9 13 1007.2 - 0.0
30/06:30pm 28.2 31.3 25.4 85 2.0 NW 19 28 10 15 1007.0 - 0.0
30/06:00pm 28.2 31.1 25.4 85 2.0 WNW 20 30 11 16 1006.5 1006.4 0.0
30/05:30pm 28.7 31.4 25.1 81 2.5 NW 20 30 11 16 1006.5 - 0.0
30/05:00pm 29.3 31.4 24.7 76 3.2 NW 22 33 12 18 1006.2 - 0.0
30/04:30pm 29.4 31.1 24.7 76 3.3 WNW 24 35 13 19 1006.1 - 0.0
30/04:00pm 30.4 32.3 24.4 70 4.2 NW 22 32 12 17 1006.1 - 0.0
30/03:30pm 30.6 31.7 24.3 69 4.4 WNW 26 35 14 19 1006.3 - 0.0
30/03:00pm 30.9 32.7 24.2 67 4.7 WNW 22 33 12 18 1006.6 1006.5 0.0
30/02:30pm 30.9 32.9 23.9 66 4.9 WNW 20 30 11 16 1006.9 - 0.0
30/02:00pm 30.6 32.5 23.7 66 4.8 WNW 20 28 11 15 1007.2 - 0.0
30/01:30pm 31.0 33.0 24.0 66 4.9 W 20 28 11 15 1007.5 - 0.0
30/01:00pm 30.8 33.0 23.9 66 4.8 W 19 26 10 14 1007.8 - 0.0
30/12:30pm 31.8 34.0 23.9 63 5.5 WNW 19 28 10 15 1008.2 - 0.0
30/12:00pm 31.3 33.8 23.8 64 5.2 W 17 24 9 13 1008.4 1008.3 0.0
30/11:30am 31.9 34.1 23.9 62 5.6 W 19 26 10 14 1008.8 - 0.0
30/11:00am 31.4 33.4 23.6 63 5.4 W 19 26 10 14 1009.1 - 0.0
30/10:30am 31.2 33.6 23.7 64 5.2 WNW 17 20 9 11 1009.5 - 0.0
30/10:00am 31.3 34.1 23.7 64 5.3 W 15 20 8 11 1009.9 - 0.0
30/09:30am 31.4 34.3 23.1 61 5.7 W 13 17 7 9 1010.3 - 0.0
30/09:00am 31.1 34.2 22.9 61 5.6 W 11 15 6 8 1010.5 1010.4 0.0
30/08:30am 30.9 34.7 23.4 64 5.2 W 9 19 5 10 1010.7 - 0.0
30/08:00am 30.2 33.2 22.6 63 5.2 W 11 17 6 9 1010.6 - 0.0
30/07:30am 29.6 33.2 23.7 70 4.1 W 11 17 6 9 1010.6 - 0.0
30/07:00am 29.2 32.5 23.2 70 4.1 WSW 11 17 6 9 1010.3 - 0.0
30/06:30am 28.4 32.5 24.5 79 2.7 WSW 11 15 6 8 1010.1 - 0.0
30/06:00am 27.6 32.2 24.7 84 2.0 WSW 9 13 5 7 1009.8 1009.7 0.0
30/05:30am 26.8 31.2 24.5 87 1.6 WSW 9 11 5 6 1009.6 - 0.0
30/05:00am 26.8 31.2 24.5 87 1.6 WSW 9 13 5 7 1009.2 - 0.0
30/04:30am 26.9 31.1 24.7 88 1.5 WSW 11 15 6 8 1009.0 - 0.0
30/04:00am 27.0 31.2 24.8 88 1.5 WSW 11 15 6 8 1009.0 - 0.0
30/03:30am 27.1 31.3 24.8 87 1.6 WSW 11 15 6 8 1008.9 - 0.0
30/03:00am 27.2 31.1 24.8 87 1.7 WSW 13 17 7 9 1008.8 1008.7 0.0
30/02:30am 27.3 30.7 24.7 86 1.8 WSW 15 20 8 11 1008.6 - 0.0
30/02:03am 27.4 30.9 24.8 86 1.8 W 15 20 8 11 1008.9 - 0.0
30/02:00am 27.4 31.0 25.0 87 1.7 W 15 20 8 11 1008.9 - 0.0
30/01:50am 27.5 31.5 25.1 87 1.7 W 13 17 7 9 1009.1 - 0.0
30/01:30am 27.5 31.4 24.9 86 1.8 W 13 19 7 10 1009.3 - 0.0
30/01:00am 27.5 31.0 24.9 86 1.8 W 15 24 8 13 1009.5 - 0.0
30/12:30am 27.5 30.9 25.2 87 1.6 W 17 24 9 13 1009.7 - 0.0
30/12:00am 27.4 31.2 25.3 88 1.5 W 15 20 8 11 1010.0 1009.9 0.0
 
Date/Time
WST
Temp
°C
App
Temp
°C
Dew
Point
Rel
Hum
%
Delta-T
°C
Wind Press
QNH
hPa
Press
MSL
hPa
Rain
since 9 am
mm
Dir
 
Spd
km/h
Gust
km/h
Spd
kts
Gust
kts
29/11:30pm 27.4 30.8 25.3 88 1.5 WNW 17 24 9 13 1010.1 - 0.0
29/11:00pm 27.4 30.9 25.4 89 1.4 W 17 24 9 13 1010.4 - 0.0
29/10:30pm 27.5 31.2 25.2 87 1.6 WNW 15 22 8 12 1010.6 - 0.0
29/10:00pm 27.6 31.1 25.5 88 1.5 W 17 26 9 14 1010.7 - 0.0
29/09:30pm 27.7 31.0 25.1 86 1.8 W 17 24 9 13 1010.8 - 0.0
29/09:00pm 27.8 31.5 25.1 85 1.9 W 15 19 8 10 1010.8 1010.7 0.0
29/08:30pm 27.9 31.5 25.0 84 2.0 W 15 20 8 11 1010.8 - 0.0
29/08:00pm 28.0 31.6 25.0 84 2.1 W 15 22 8 12 1010.6 - 0.0
29/07:30pm 28.0 31.6 25.0 84 2.1 W 15 20 8 11 1010.3 - 0.0
29/07:00pm 28.1 31.2 24.8 82 2.3 W 17 22 9 12 1010.1 - 0.0
29/06:30pm 28.1 31.6 24.8 82 2.3 WNW 15 20 8 11 1009.9 - 0.0
29/06:00pm 28.4 31.7 24.5 79 2.7 WNW 15 22 8 12 1009.9 1009.8 0.0
29/05:30pm 28.9 31.4 24.5 77 3.1 WNW 19 26 10 14 1009.8 - 0.0
29/05:00pm 29.4 31.8 24.2 73 3.6 WNW 19 26 10 14 1009.8 - 0.0
29/04:30pm 29.8 31.8 23.9 70 4.1 WNW 20 28 11 15 1009.5 - 0.0
29/04:00pm 30.3 31.5 23.2 65 4.9 WNW 22 32 12 17 1009.3 - 0.0
29/03:30pm 30.8 31.7 22.6 61 5.6 WNW 22 30 12 16 1009.2 - 0.0
29/03:00pm 32.2 32.8 21.4 53 7.3 W 20 28 11 15 1009.3 1009.2 0.0
29/02:30pm 33.1 32.4 19.6 45 8.9 W 22 28 12 15 1009.4 - 0.0
29/02:00pm 32.8 32.4 19.4 45 8.8 W 20 26 11 14 1009.6 - 0.0
29/01:30pm 32.9 32.4 17.8 40 9.7 W 17 22 9 12 1010.0 - 0.0
29/01:00pm 32.4 33.4 21.1 51 7.6 W 17 26 9 14 1010.5 - 0.0
29/12:30pm 32.5 33.6 21.2 51 7.6 W 17 24 9 13 1011.0 - 0.0
29/12:00pm 31.9 33.6 22.4 57 6.5 W 17 26 9 14 1011.5 1011.4 0.0
29/11:30am 31.3 32.5 23.2 62 5.6 W 22 28 12 15 1011.7 - 0.0
29/11:00am 31.0 32.6 23.3 63 5.3 W 20 28 11 15 1012.1 - 0.0
29/10:30am 31.1 32.7 23.3 63 5.4 W 20 24 11 13 1012.4 - 0.0
29/10:00am 31.0 32.7 22.3 60 5.9 W 17 22 9 12 1012.7 - 0.0
29/09:30am 30.7 32.9 22.6 62 5.5 W 15 22 8 12 1012.6 - 0.0
29/09:00am 30.7 33.4 23.5 65 5.0 W 15 19 8 10 1012.4 1012.3 0.0
29/08:30am 29.9 32.8 23.8 70 4.2 W 15 20 8 11 1012.3 - 0.0
29/08:00am 29.6 32.7 24.1 72 3.8 WNW 15 20 8 11 1012.3 - 0.0
29/07:30am 29.2 33.1 24.3 75 3.4 W 11 19 6 10 1012.2 - 0.0
29/07:00am 28.9 33.1 24.1 75 3.3 SW 9 13 5 7 1012.0 - 0.0
29/06:30am 28.1 32.9 24.4 80 2.6 SW 7 11 4 6 1011.9 - 0.0
29/06:00am 27.4 32.0 24.2 83 2.2 SW 7 9 4 5 1011.9 1011.8 0.0
29/05:30am 27.1 31.7 24.2 84 2.0 SSW 7 11 4 6 1011.6 - 0.0
29/05:00am 27.2 31.3 24.0 83 2.2 SW 9 11 5 6 1011.4 - 0.0
29/04:30am 27.2 31.3 23.9 82 2.3 SSW 9 15 5 8 1011.0 - 0.0
29/04:00am 27.3 30.7 24.0 82 2.3 SSW 13 20 7 11 1010.3 - 0.0
29/03:30am 27.5 31.2 23.9 81 2.5 SW 11 15 6 8 1010.5 - 0.0
29/03:00am 27.3 31.4 24.0 82 2.3 SW 9 13 5 7 1010.4 1010.3 0.0
29/02:30am 27.3 31.2 24.3 84 2.1 SW 11 15 6 8 1010.3 - 0.0
29/02:00am 27.1 32.0 24.7 87 1.7 WSW 7 9 4 5 1010.2 - 0.0
29/01:30am 27.3 31.9 24.7 86 1.8 SW 9 13 5 7 1010.4 - 0.0
29/01:00am 27.5 31.7 24.8 85 1.9 SSW 11 15 6 8 1010.6 - 0.0
29/12:30am 27.6 32.1 25.2 87 1.7 WSW 11 17 6 9 1010.5 - 0.0
29/12:00am 27.7 32.1 25.1 86 1.8 W 11 17 6 9 1011.0 1010.9 0.0
 
Date/Time
WST
Temp
°C
App
Temp
°C
Dew
Point
Rel
Hum
%
Delta-T
°C
Wind Press
QNH
hPa
Press
MSL
hPa
Rain
since 9 am
mm
Dir
 
Spd
km/h
Gust
km/h
Spd
kts
Gust
kts
28/11:30pm 27.5 32.5 25.4 88 1.5 W 9 15 5 8 1011.1 - 0.0
28/11:27pm 27.5 32.1 25.4 88 1.5 W 11 15 6 8 1011.1 - 0.0
28/11:00pm 27.5 32.7 25.7 90 1.3 WNW 9 11 5 6 1011.3 - 0.0
28/10:32pm 27.5 32.7 25.7 90 1.3 NW 9 13 5 7 1011.4 - 0.0
28/10:30pm 27.4 32.6 25.7 90 1.2 NW 9 17 5 9 1011.4 - 0.0
28/10:00pm 27.6 32.3 25.5 88 1.5 NW 11 17 6 9 1011.0 - 0.0
28/09:30pm 27.7 31.6 25.4 87 1.6 NW 15 24 8 13 1010.9 - 0.0
28/09:12pm 27.7 31.9 25.3 87 1.7 NW 13 20 7 11 1011.0 - 0.0
28/09:00pm 27.7 31.6 25.4 87 1.6 NW 15 22 8 12 1010.9 1010.8 0.0
28/08:30pm 27.9 32.4 25.8 88 1.5 NW 13 22 7 12 1010.8 - 0.0
28/08:18pm 27.9 32.4 25.8 88 1.5 NW 13 19 7 10 1010.8 - 0.0
28/08:00pm 27.9 32.3 25.6 87 1.6 NW 13 19 7 10 1010.6 - 0.0
28/07:30pm 28.0 32.0 25.6 87 1.7 WNW 15 20 8 11 1010.3 - 0.0
28/07:00pm 28.0 31.9 25.4 86 1.8 W 15 24 8 13 1009.8 - 0.0
28/06:30pm 28.1 31.0 25.1 84 2.1 WNW 19 24 10 13 1009.5 - 0.0
28/06:00pm 28.3 31.1 25.0 82 2.3 W 19 28 10 15 1009.2 1009.1 0.0
28/05:30pm 28.7 31.5 25.3 82 2.4 WNW 20 28 11 15 1009.2 - 0.0
28/05:00pm 29.4 31.7 25.0 77 3.1 WNW 22 30 12 16 1008.8 - 0.0
28/04:30pm 29.5 31.2 24.6 75 3.4 NW 24 33 13 18 1009.0 - 0.0
28/04:00pm 29.9 31.3 24.2 71 4.0 WNW 24 33 13 18 1009.2 - 0.0
28/03:30pm 30.4 31.6 23.9 68 4.5 W 24 32 13 17 1009.0 - 0.0
28/03:00pm 31.1 32.2 23.6 64 5.2 WNW 24 32 13 17 1009.1 1009.0 0.0
28/02:30pm 31.3 32.6 23.3 62 5.5 W 22 30 12 16 1009.2 - 0.0
28/02:00pm 31.6 32.7 23.0 60 5.9 WNW 22 33 12 18 1009.3 - 0.0
28/01:30pm 32.0 32.7 22.2 56 6.7 WNW 22 30 12 16 1009.6 - 0.0
28/01:00pm 31.9 33.2 22.6 58 6.4 WNW 20 28 11 15 1009.9 - 0.0
28/12:30pm 32.0 33.1 22.3 56 6.6 WNW 20 30 11 16 1010.4 - 0.0
28/12:00pm 32.3 32.7 21.0 51 7.6 WNW 20 30 11 16 1010.7 1010.6 0.0

Other Formats:

Comma delimited format used in spreadsheet applications
http://www.bom.gov.au/fwo/IDW60801/IDW60801.94203.axf

JavaScript Object Notation format (JSON) in row-major order
http://www.bom.gov.au/fwo/IDW60801/IDW60801.94203.json